createdAt,value
2019-03-29T00:03:44.729Z,9.35
2019-03-29T00:06:14.063Z,9.31
2019-03-29T00:08:43.407Z,9.26
2019-03-29T00:11:13.123Z,9.26
2019-03-29T00:14:02.869Z,9.23
2019-03-29T00:16:32.194Z,9.19
2019-03-29T00:19:02.039Z,9.17
2019-03-29T00:21:39.111Z,9.15
2019-03-29T00:24:15.064Z,9.19
2019-03-29T00:26:55.566Z,9.20
2019-03-29T00:29:24.897Z,9.17
2019-03-29T00:31:54.304Z,9.09
2019-03-29T00:34:42.972Z,9.02
2019-03-29T00:37:12.316Z,9.06
2019-03-29T00:39:41.670Z,9.01
2019-03-29T00:42:11.293Z,9.02
2019-03-29T00:44:40.627Z,9.01
2019-03-29T00:47:29.382Z,8.86
2019-03-29T00:53:25.750Z,8.72
2019-03-29T00:55:55.082Z,8.68
2019-03-29T00:58:29.895Z,8.63
2019-03-29T01:00:59.315Z,8.68
2019-03-29T01:03:49.352Z,8.60
2019-03-29T01:06:18.930Z,8.50
2019-03-29T01:08:48.331Z,8.45
2019-03-29T01:11:17.945Z,8.38
2019-03-29T01:13:47.274Z,8.38
2019-03-29T01:16:16.611Z,8.42
2019-03-29T01:18:45.943Z,8.45
2019-03-29T01:21:34.380Z,8.47
2019-03-29T01:24:03.711Z,8.53
2019-03-29T01:26:33.048Z,8.63
2019-03-29T01:29:02.390Z,8.69
2019-03-29T01:31:31.719Z,8.79
2019-03-29T01:34:01.083Z,8.89
2019-03-29T01:36:30.410Z,8.93
2019-03-29T01:38:59.752Z,8.97
2019-03-29T01:41:29.082Z,9.09
2019-03-29T01:43:58.415Z,9.18
2019-03-29T01:46:27.754Z,9.23
2019-03-29T01:48:57.087Z,9.23
2019-03-29T01:51:27.224Z,9.20
2019-03-29T01:54:16.549Z,9.09
2019-03-29T01:57:25.788Z,8.94
2019-03-29T01:59:55.115Z,8.90
2019-03-29T02:02:24.454Z,8.88
2019-03-29T02:04:53.786Z,8.88
2019-03-29T02:07:23.126Z,8.77
2019-03-29T02:09:52.456Z,8.67
2019-03-29T02:12:21.787Z,8.60
2019-03-29T02:14:51.195Z,8.54
2019-03-29T02:17:21.238Z,8.49
2019-03-29T02:19:58.018Z,8.47
2019-03-29T02:22:33.235Z,8.47
2019-03-29T02:25:02.578Z,8.38
2019-03-29T02:27:31.907Z,8.42
2019-03-29T02:30:01.271Z,8.35
2019-03-29T02:32:30.888Z,8.40
2019-03-29T02:35:00.465Z,8.39
2019-03-29T02:37:29.924Z,8.23
2019-03-29T02:39:59.203Z,8.29
2019-03-29T02:42:28.552Z,8.26
2019-03-29T02:44:57.879Z,8.24
2019-03-29T02:47:27.218Z,8.18
2019-03-29T02:49:56.567Z,8.17
2019-03-29T02:52:25.883Z,8.18
2019-03-29T02:54:55.223Z,8.15
2019-03-29T02:57:24.561Z,8.08
2019-03-29T02:59:53.911Z,8.13
2019-03-29T03:02:26.232Z,8.10
2019-03-29T03:04:59.950Z,8.02
2019-03-29T03:07:29.280Z,7.91
2019-03-29T03:09:58.609Z,7.89
2019-03-29T03:12:28.195Z,7.92
2019-03-29T03:14:57.529Z,7.87
2019-03-29T03:17:46.206Z,7.83
2019-03-29T03:20:27.628Z,7.80
2019-03-29T03:22:56.972Z,7.81
2019-03-29T03:25:26.304Z,7.70
2019-03-29T03:27:55.636Z,7.71
2019-03-29T03:30:25.174Z,7.72
2019-03-29T03:33:05.647Z,7.65
2019-03-29T03:35:35.058Z,7.67
2019-03-29T03:38:04.384Z,7.52
2019-03-29T03:40:33.738Z,7.53
2019-03-29T03:43:03.060Z,7.64
2019-03-29T03:45:32.392Z,7.67
2019-03-29T03:48:01.730Z,7.64
2019-03-29T03:50:50.672Z,7.52
2019-03-29T03:53:20.008Z,7.43
2019-03-29T03:55:49.409Z,7.42
2019-03-29T03:59:00.288Z,7.49
2019-03-29T04:01:29.629Z,7.47
2019-03-29T04:03:58.961Z,7.45
2019-03-29T04:06:28.292Z,7.48
2019-03-29T04:08:57.628Z,7.43
2019-03-29T04:11:26.966Z,7.47
2019-03-29T04:13:56.296Z,7.47
2019-03-29T04:16:27.265Z,7.48
2019-03-29T04:19:02.402Z,7.53
2019-03-29T04:21:31.720Z,7.43
2019-03-29T04:24:01.058Z,7.38
2019-03-29T04:26:30.406Z,7.27
2019-03-29T04:29:04.738Z,7.29
2019-03-29T04:31:40.235Z,7.29
2019-03-29T04:34:09.574Z,7.35
2019-03-29T04:36:44.159Z,7.42
2019-03-29T04:39:13.498Z,7.41
2019-03-29T04:41:42.826Z,7.37
2019-03-29T04:44:12.161Z,7.28
2019-03-29T04:46:41.489Z,7.27
2019-03-29T04:49:10.838Z,7.22
2019-03-29T04:51:40.161Z,7.23
2019-03-29T04:54:09.508Z,7.13
2019-03-29T04:56:38.839Z,7.20
2019-03-29T04:59:08.171Z,7.16
2019-03-29T05:01:37.508Z,7.10
2019-03-29T05:04:25.929Z,7.14
2019-03-29T05:06:55.264Z,7.11
2019-03-29T05:09:24.598Z,7.07
2019-03-29T05:11:53.985Z,7.03
2019-03-29T05:14:23.311Z,7.03
2019-03-29T05:16:52.643Z,7.05
2019-03-29T05:19:21.985Z,6.99
2019-03-29T05:21:51.317Z,6.90
2019-03-29T05:24:20.660Z,7.00
2019-03-29T05:26:49.988Z,6.97
2019-03-29T05:29:31.815Z,7.02
2019-03-29T05:32:01.144Z,7.02
2019-03-29T05:34:30.474Z,7.09
2019-03-29T05:37:05.569Z,7.03
2019-03-29T05:39:35.238Z,7.16
2019-03-29T05:42:04.579Z,7.24
2019-03-29T05:44:33.912Z,7.26
2019-03-29T05:47:03.264Z,7.42
2019-03-29T05:49:32.589Z,7.44
2019-03-29T05:52:01.929Z,7.47
2019-03-29T05:54:31.278Z,7.50
2019-03-29T05:57:00.634Z,7.58
2019-03-29T05:59:29.957Z,7.72
2019-03-29T06:01:59.290Z,7.66
2019-03-29T06:04:28.623Z,7.68
2019-03-29T06:06:57.955Z,7.67
2019-03-29T06:09:27.298Z,7.98
2019-03-29T06:12:15.726Z,7.90
2019-03-29T06:14:45.055Z,7.91
2019-03-29T06:17:14.384Z,7.89
2019-03-29T06:19:43.715Z,8.00
2019-03-29T06:22:13.052Z,8.21
2019-03-29T06:24:42.381Z,8.21
2019-03-29T06:27:11.719Z,8.35
2019-03-29T06:29:41.047Z,8.45
2019-03-29T06:32:10.622Z,8.55
2019-03-29T06:34:39.953Z,8.35
2019-03-29T06:37:49.220Z,8.32
2019-03-29T06:40:37.896Z,8.51
2019-03-29T06:43:07.231Z,8.61
2019-03-29T06:45:47.175Z,8.67
2019-03-29T06:48:56.941Z,8.70
2019-03-29T06:51:26.280Z,8.57
2019-03-29T06:53:55.616Z,8.54
2019-03-29T06:56:24.958Z,8.64
2019-03-29T06:59:13.623Z,8.65
2019-03-29T07:01:46.245Z,8.86
2019-03-29T07:04:33.095Z,8.75
2019-03-29T07:07:02.442Z,8.83
2019-03-29T07:09:31.768Z,8.83
2019-03-29T07:12:01.107Z,8.93
2019-03-29T07:14:49.604Z,8.96
2019-03-29T07:17:18.970Z,9.17
2019-03-29T07:19:48.287Z,8.96
2019-03-29T07:22:17.620Z,9.09
2019-03-29T07:24:46.956Z,9.12
2019-03-29T07:27:16.301Z,9.26
2019-03-29T07:29:45.628Z,9.19
2019-03-29T07:32:14.958Z,9.48
2019-03-29T07:34:44.300Z,9.56
2019-03-29T07:37:18.867Z,9.32
2019-03-29T07:39:48.291Z,9.44
2019-03-29T07:42:17.623Z,9.34
2019-03-29T07:44:46.953Z,9.44
2019-03-29T07:47:16.292Z,9.68
2019-03-29T07:49:45.624Z,9.76
2019-03-29T07:52:14.958Z,9.97
2019-03-29T07:54:44.287Z,9.80
2019-03-29T07:57:13.627Z,9.87
2019-03-29T07:59:43.205Z,9.93
2019-03-29T08:02:12.535Z,9.82
2019-03-29T08:04:41.876Z,10.07
2019-03-29T08:07:11.217Z,10.26
2019-03-29T08:09:40.561Z,10.37
2019-03-29T08:12:09.896Z,10.35
2019-03-29T08:14:39.242Z,10.36
2019-03-29T08:17:08.576Z,10.54
2019-03-29T08:19:37.908Z,10.66
2019-03-29T08:22:07.511Z,10.75
2019-03-29T08:24:36.839Z,10.81
2019-03-29T08:27:06.176Z,10.59
2019-03-29T08:29:35.503Z,10.94
2019-03-29T08:32:04.856Z,10.96
2019-03-29T08:34:53.547Z,11.12
2019-03-29T08:37:35.118Z,11.15
2019-03-29T08:43:28.050Z,11.33
2019-03-29T08:45:58.075Z,11.07
2019-03-29T08:48:34.302Z,11.23
2019-03-29T08:51:03.641Z,11.47
2019-03-29T08:53:32.966Z,11.51
2019-03-29T08:56:02.308Z,11.78
2019-03-29T08:58:31.658Z,11.92
2019-03-29T09:01:00.996Z,12.03
2019-03-29T09:04:01.466Z,12.19
2019-03-29T09:06:25.736Z,12.25
2019-03-29T09:11:57.159Z,11.99
2019-03-29T09:14:26.499Z,11.94
2019-03-29T09:16:55.827Z,11.97
2019-03-29T09:19:25.191Z,11.82
2019-03-29T09:21:54.525Z,12.15
2019-03-29T09:25:03.770Z,12.29
2019-03-29T09:27:33.108Z,12.22
2019-03-29T09:30:05.080Z,12.62
2019-03-29T09:32:52.593Z,12.88
2019-03-29T09:35:22.155Z,13.30
2019-03-29T09:37:51.633Z,13.35
2019-03-29T09:40:21.110Z,13.30
2019-03-29T09:43:05.712Z,13.41
2019-03-29T09:48:42.217Z,13.75
2019-03-29T09:51:11.545Z,13.70
2019-03-29T09:53:41.547Z,13.45
2019-03-29T09:56:17.640Z,13.21
2019-03-29T09:58:46.969Z,13.20
2019-03-29T10:01:16.358Z,13.17
2019-03-29T10:03:45.726Z,13.40
2019-03-29T10:06:15.540Z,13.62
2019-03-29T10:08:55.530Z,13.85
2019-03-29T10:11:25.127Z,14.09
2019-03-29T10:13:54.460Z,13.87
2019-03-29T10:16:36.270Z,14.35
2019-03-29T10:19:05.595Z,14.35
2019-03-29T10:21:34.929Z,13.82
2019-03-29T10:24:04.272Z,13.70
2019-03-29T10:26:52.958Z,14.43
2019-03-29T10:29:22.348Z,14.43
2019-03-29T10:32:10.974Z,14.06
2019-03-29T10:34:40.320Z,14.06
2019-03-29T10:37:09.647Z,13.99
2019-03-29T10:39:51.479Z,13.78
2019-03-29T10:42:32.836Z,13.78
2019-03-29T10:45:14.320Z,14.33
2019-03-29T10:47:44.310Z,14.33
2019-03-29T10:50:39.179Z,14.67
2019-03-29T10:53:20.724Z,14.95
2019-03-29T10:56:02.683Z,15.20
2019-03-29T10:58:32.022Z,15.20
2019-03-29T11:01:01.356Z,15.16
2019-03-29T11:03:30.695Z,15.34
2019-03-29T11:06:00.424Z,15.46
2019-03-29T11:08:29.766Z,15.51
2019-03-29T11:10:59.098Z,16.18
2019-03-29T11:13:28.423Z,15.71
2019-03-29T11:15:57.768Z,15.46
2019-03-29T11:18:27.122Z,15.57
2019-03-29T11:20:56.455Z,15.65
2019-03-29T11:23:45.142Z,15.42
2019-03-29T11:26:14.787Z,14.98
2019-03-29T11:28:44.121Z,15.32
2019-03-29T11:31:13.463Z,15.48
2019-03-29T11:33:42.810Z,15.83
2019-03-29T11:36:12.248Z,15.83
2019-03-29T11:38:41.561Z,15.83
2019-03-29T11:41:10.882Z,16.03
2019-03-29T11:43:40.214Z,15.99
2019-03-29T11:46:09.554Z,16.10
2019-03-29T11:48:38.875Z,16.06
2019-03-29T11:51:18.700Z,16.39
2019-03-29T11:53:58.485Z,16.65
2019-03-29T11:56:27.821Z,16.74
2019-03-29T11:58:57.140Z,16.62
2019-03-29T12:01:26.812Z,16.53
2019-03-29T12:03:56.128Z,16.31
2019-03-29T12:06:25.553Z,16.35
2019-03-29T12:11:58.197Z,16.53
2019-03-29T12:14:27.529Z,16.42
2019-03-29T12:16:58.509Z,16.26
2019-03-29T12:19:27.911Z,16.32
2019-03-29T12:21:57.238Z,16.31
2019-03-29T12:24:38.942Z,16.34
2019-03-29T12:27:08.276Z,16.38
2019-03-29T12:29:37.598Z,16.33
2019-03-29T12:32:06.934Z,16.45
2019-03-29T12:34:36.266Z,16.50
2019-03-29T12:37:05.599Z,16.28
2019-03-29T12:39:34.944Z,16.30
2019-03-29T12:42:10.158Z,16.06
2019-03-29T12:47:41.824Z,16.15
2019-03-29T12:53:21.855Z,16.33
2019-03-29T12:55:51.188Z,16.38
2019-03-29T12:58:20.522Z,16.33
2019-03-29T13:00:49.933Z,16.42
2019-03-29T13:03:19.261Z,16.50
2019-03-29T13:05:48.591Z,16.67
2019-03-29T13:08:17.935Z,16.69
2019-03-29T13:10:47.665Z,16.63
2019-03-29T13:13:16.993Z,16.74
2019-03-29T13:15:46.334Z,16.65
2019-03-29T13:18:15.664Z,16.59
2019-03-29T13:20:45.077Z,16.71
2019-03-29T13:23:14.403Z,16.72
2019-03-29T13:25:43.736Z,16.38
2019-03-29T13:28:13.378Z,16.34
2019-03-29T13:30:42.703Z,16.61
2019-03-29T13:33:12.275Z,16.67
2019-03-29T13:35:44.393Z,16.48
2019-03-29T13:38:31.739Z,16.60
2019-03-29T13:41:01.080Z,16.50
2019-03-29T13:43:36.277Z,16.70
2019-03-29T13:46:22.671Z,16.72
2019-03-29T13:48:52.006Z,16.75
2019-03-29T13:51:21.331Z,16.38
2019-03-29T13:53:50.681Z,16.33
2019-03-29T13:56:20.018Z,16.53
2019-03-29T13:58:49.347Z,16.52
2019-03-29T14:01:18.699Z,16.50
2019-03-29T14:03:48.031Z,16.56
2019-03-29T14:06:17.362Z,16.76
2019-03-29T14:08:46.702Z,16.77
2019-03-29T14:11:16.335Z,16.67
2019-03-29T14:13:45.742Z,16.61
2019-03-29T14:16:15.073Z,16.63
2019-03-29T14:18:44.405Z,16.59
2019-03-29T14:21:13.747Z,16.83
2019-03-29T14:23:43.076Z,16.60
2019-03-29T14:26:12.479Z,16.80
2019-03-29T14:28:41.826Z,16.77
2019-03-29T14:31:11.155Z,16.70
2019-03-29T14:33:40.487Z,16.73
2019-03-29T14:36:10.151Z,16.79
2019-03-29T14:38:51.739Z,16.83
2019-03-29T14:41:21.151Z,16.89
2019-03-29T14:43:50.496Z,16.97
2019-03-29T14:46:19.826Z,17.01
2019-03-29T14:48:49.169Z,16.81
2019-03-29T14:51:18.499Z,16.87
2019-03-29T14:53:47.831Z,17.10
2019-03-29T14:56:17.179Z,17.09
2019-03-29T14:58:46.510Z,17.03
2019-03-29T15:01:15.843Z,16.97
2019-03-29T15:03:45.183Z,16.64
2019-03-29T15:06:14.586Z,16.65
2019-03-29T15:08:43.920Z,16.72
2019-03-29T15:11:21.993Z,17.02
2019-03-29T15:13:49.962Z,17.13
2019-03-29T15:16:19.352Z,17.12
2019-03-29T15:18:48.690Z,17.20
2019-03-29T15:21:18.020Z,17.01
2019-03-29T15:23:47.360Z,17.25
2019-03-29T15:26:16.694Z,17.16
2019-03-29T15:28:58.145Z,17.08
2019-03-29T15:31:27.487Z,17.16
2019-03-29T15:33:56.811Z,16.95
2019-03-29T15:36:37.969Z,17.17
2019-03-29T15:39:47.201Z,17.23
2019-03-29T15:42:16.546Z,17.22
2019-03-29T15:44:51.699Z,17.19
2019-03-29T15:47:21.039Z,17.31
2019-03-29T15:49:56.234Z,17.47
2019-03-29T15:52:26.987Z,17.08
2019-03-29T15:54:56.570Z,17.13
2019-03-29T15:57:26.002Z,17.17
2019-03-29T15:59:55.341Z,17.14
2019-03-29T16:02:24.676Z,17.29
2019-03-29T16:04:54.001Z,17.25
2019-03-29T16:07:23.455Z,17.18
2019-03-29T16:09:52.771Z,17.14
2019-03-29T16:12:22.107Z,17.27
2019-03-29T16:15:03.834Z,17.11
2019-03-29T16:17:33.368Z,16.86
2019-03-29T16:20:02.771Z,16.97
2019-03-29T16:22:32.109Z,16.73
2019-03-29T16:25:01.458Z,16.77
2019-03-29T16:27:30.819Z,16.46
2019-03-29T16:33:20.807Z,16.58
2019-03-29T16:35:50.463Z,16.39
2019-03-29T16:38:19.947Z,16.33
2019-03-29T16:40:49.293Z,16.27
2019-03-29T16:43:38.060Z,16.26
2019-03-29T16:46:13.154Z,16.23
2019-03-29T16:48:42.911Z,16.18
2019-03-29T16:51:12.238Z,16.09
2019-03-29T16:53:41.577Z,15.92
2019-03-29T16:56:12.194Z,15.79
2019-03-29T16:58:51.663Z,15.79
2019-03-29T17:01:33.133Z,15.70
2019-03-29T17:04:02.479Z,15.72
2019-03-29T17:06:31.819Z,15.58
2019-03-29T17:09:01.138Z,15.50
2019-03-29T17:11:30.549Z,15.32
2019-03-29T17:13:59.892Z,15.29
2019-03-29T17:16:30.640Z,15.21
2019-03-29T17:19:19.352Z,15.19
2019-03-29T17:21:48.693Z,15.06
2019-03-29T17:24:30.713Z,14.72
2019-03-29T17:27:00.052Z,14.72
2019-03-29T17:29:29.382Z,14.76
2019-03-29T17:32:11.591Z,14.65
2019-03-29T17:34:52.611Z,14.67
2019-03-29T17:37:21.948Z,14.67
2019-03-29T17:40:12.620Z,14.49
2019-03-29T17:42:56.084Z,14.30
2019-03-29T17:45:39.487Z,14.10
2019-03-29T17:48:20.912Z,14.04
2019-03-29T17:50:50.249Z,14.04
2019-03-29T17:53:19.582Z,13.95
2019-03-29T17:56:19.676Z,13.85
2019-03-29T17:58:49.171Z,13.85
2019-03-29T18:01:18.502Z,13.62
2019-03-29T18:03:49.481Z,13.79
2019-03-29T18:06:38.164Z,13.70
2019-03-29T18:09:19.651Z,13.59
2019-03-29T18:11:48.976Z,13.59
2019-03-29T18:14:20.030Z,13.62
2019-03-29T18:16:50.996Z,13.55
2019-03-29T18:19:20.341Z,13.55
2019-03-29T18:22:01.631Z,13.35
2019-03-29T18:24:31.052Z,13.19
2019-03-29T18:27:19.869Z,13.12
2019-03-29T18:30:20.728Z,13.08
2019-03-29T18:33:01.856Z,12.95
2019-03-29T18:35:43.382Z,13.01
2019-03-29T18:41:55.135Z,12.63
2019-03-29T18:44:24.475Z,12.63
2019-03-29T18:46:53.888Z,12.69
2019-03-29T18:49:42.783Z,12.48
2019-03-29T18:52:12.181Z,12.48
2019-03-29T18:57:50.689Z,12.43
2019-03-29T19:03:53.582Z,12.34
2019-03-29T19:06:23.019Z,12.28
2019-03-29T19:08:52.539Z,12.17
2019-03-29T19:11:22.140Z,12.15
2019-03-29T19:13:51.514Z,11.93
2019-03-29T19:16:20.956Z,11.77
2019-03-29T19:18:50.407Z,11.68
2019-03-29T19:21:19.999Z,11.68
2019-03-29T19:23:49.757Z,11.69
2019-03-29T19:26:31.107Z,11.51
2019-03-29T19:29:00.543Z,11.51
2019-03-29T19:31:30.302Z,11.58
2019-03-29T19:34:01.403Z,11.52
2019-03-29T19:36:30.871Z,11.44
2019-03-29T19:39:00.311Z,11.38
2019-03-29T19:41:29.831Z,11.33
2019-03-29T19:44:13.684Z,11.30
2019-03-29T19:46:54.663Z,11.53
2019-03-29T19:49:24.415Z,11.53
2019-03-29T19:51:54.199Z,11.53
2019-03-29T19:54:23.686Z,11.57
2019-03-29T19:56:53.316Z,11.44
2019-03-29T19:59:22.991Z,11.34
2019-03-29T20:01:52.660Z,11.23
2019-03-29T20:04:22.300Z,11.22
2019-03-29T20:07:10.899Z,11.12
2019-03-29T20:09:42.028Z,11.00
2019-03-29T20:12:30.794Z,10.92
2019-03-29T20:15:00.546Z,11.01
2019-03-29T20:17:32.197Z,11.12
2019-03-29T20:23:36.145Z,11.00
2019-03-29T20:26:08.279Z,11.09
2019-03-29T20:28:43.147Z,10.97
2019-03-29T20:31:13.043Z,10.93
2019-03-29T20:34:02.057Z,10.79
2019-03-29T20:36:31.786Z,10.88
2019-03-29T20:39:01.319Z,10.96
2019-03-29T20:41:30.990Z,10.89
2019-03-29T20:44:00.593Z,10.92
2019-03-29T20:46:30.455Z,10.84
2019-03-29T20:49:00.037Z,10.78
2019-03-29T20:51:29.607Z,10.73
2019-03-29T20:53:59.201Z,10.78
2019-03-29T20:56:48.452Z,10.67
2019-03-29T20:59:38.280Z,10.76
2019-03-29T21:02:07.733Z,10.66
2019-03-29T21:04:37.300Z,10.62
2019-03-29T21:07:18.964Z,10.66
2019-03-29T21:09:48.755Z,10.64
2019-03-29T21:12:18.143Z,10.72
2019-03-29T21:14:47.599Z,10.83
2019-03-29T21:17:17.192Z,10.82
2019-03-29T21:19:47.281Z,10.84
2019-03-29T21:22:16.825Z,10.74
2019-03-29T21:24:46.209Z,10.65
2019-03-29T21:27:15.571Z,10.54
2019-03-29T21:29:44.937Z,10.47
2019-03-29T21:32:14.277Z,10.29
2019-03-29T21:34:43.608Z,10.11
2019-03-29T21:37:13.157Z,10.04
2019-03-29T21:39:42.581Z,10.04
2019-03-29T21:42:31.016Z,10.02
2019-03-29T21:45:00.380Z,10.16
2019-03-29T21:47:29.709Z,10.13
2019-03-29T21:49:59.052Z,10.02
2019-03-29T21:52:28.379Z,9.94
2019-03-29T21:54:57.726Z,9.88
2019-03-29T21:57:27.048Z,9.76
2019-03-29T21:59:56.390Z,9.71
2019-03-29T22:02:38.248Z,9.73
2019-03-29T22:08:09.861Z,9.71
2019-03-29T22:10:58.608Z,9.73
2019-03-29T22:13:27.934Z,9.72
2019-03-29T22:16:16.616Z,9.77
2019-03-29T22:18:46.041Z,9.75
2019-03-29T22:21:15.376Z,9.68
2019-03-29T22:23:44.998Z,9.63
2019-03-29T22:26:14.318Z,9.60
2019-03-29T22:28:43.674Z,9.61
2019-03-29T22:31:12.997Z,9.60
2019-03-29T22:33:42.333Z,9.67
2019-03-29T22:36:11.661Z,9.61
2019-03-29T22:39:00.083Z,9.66
2019-03-29T22:41:29.406Z,9.60
2019-03-29T22:43:58.752Z,9.59
2019-03-29T22:46:28.066Z,9.58
2019-03-29T22:48:57.398Z,9.54
2019-03-29T22:51:26.721Z,9.58
2019-03-29T22:53:56.056Z,9.55
2019-03-29T22:56:25.618Z,9.52
2019-03-29T22:58:54.953Z,9.42
2019-03-29T23:04:57.704Z,9.26
2019-03-29T23:07:27.032Z,9.16
2019-03-29T23:09:56.377Z,9.15
2019-03-29T23:12:25.708Z,9.09
2019-03-29T23:14:55.286Z,8.98
2019-03-29T23:17:26.263Z,8.88
2019-03-29T23:19:55.599Z,8.87
2019-03-29T23:22:24.931Z,8.82
2019-03-29T23:25:13.353Z,8.75
2019-03-29T23:27:42.694Z,8.64
2019-03-29T23:33:35.260Z,8.58
2019-03-29T23:36:04.588Z,8.55
2019-03-29T23:38:33.923Z,8.43
2019-03-29T23:41:03.418Z,8.38
2019-03-29T23:43:32.750Z,8.35
2019-03-29T23:46:09.022Z,8.44
2019-03-29T23:48:38.360Z,8.36
2019-03-29T23:51:07.686Z,8.34
2019-03-29T23:53:37.018Z,8.28
2019-03-29T23:56:06.348Z,8.30
2019-03-29T23:58:35.678Z,8.32
